Time;durP1;ratioP1;P1;durP2;ratioP2;P2;SDS_P1;SDS_P2;PMS_P1;PMS_P2;Temp;Humidity;BMP_temperature;BMP_pressure;BME280_temperature;BME280_humidity;BME280_pressure;Samples;Min_cycle;Max_cycle;Signal;HPM_P1;HPM_P2
2022/09/17 00:00:13;;;;;;;2.60;2.40;;;;;;;8.54;83.03;99202.86;84859;1324;25326;-72
2022/09/17 00:02:46;;;;;;;4.70;2.70;;;;;;;8.60;83.00;99198.73;84856;1324;22597;-71
2022/09/17 00:04:56;;;;;;;6.20;3.00;;;;;;;8.66;83.27;99195.86;84875;1322;22599;-71
2022/09/17 00:07:05;;;;;;;4.60;3.20;;;;;;;8.71;83.24;99199.77;84834;1323;23959;-72
2022/09/17 00:09:14;;;;;;;4.10;2.70;;;;;;;8.77;83.28;99202.27;84829;1322;22617;-74
2022/09/17 00:11:25;;;;;;;5.70;3.50;;;;;;;8.82;83.63;99196.11;84791;1328;22629;-72
2022/09/17 00:13:37;;;;;;;7.00;3.90;;;;;;;8.87;83.27;99202.33;84839;1324;22592;-71
2022/09/17 00:15:50;;;;;;;4.20;2.60;;;;;;;8.91;82.97;99200.69;84878;1324;25272;-71
2022/09/17 00:17:59;;;;;;;2.70;2.30;;;;;;;8.97;83.22;99201.81;84866;1323;22578;-71
2022/09/17 00:20:12;;;;;;;5.50;2.90;;;;;;;9.00;82.88;99199.52;84814;1324;22623;-72
2022/09/17 00:22:22;;;;;;;4.00;2.40;;;;;;;9.03;82.81;99200.97;84739;1326;23901;-71
2022/09/17 00:24:33;;;;;;;3.40;2.50;;;;;;;9.05;82.88;99201.72;84865;1324;23055;-71
2022/09/17 00:26:43;;;;;;;4.00;2.60;;;;;;;9.07;82.62;99206.53;84877;1324;22597;-70
2022/09/17 00:28:54;;;;;;;5.90;2.60;;;;;;;9.06;82.48;99203.41;84833;1326;22703;-71
2022/09/17 00:31:04;;;;;;;3.00;2.60;;;;;;;9.06;82.63;99202.71;84891;1324;22659;-71
2022/09/17 00:33:12;;;;;;;;;;;;;;;9.07;82.43;99204.78;84934;1324;22591;-71
2022/09/17 00:35:21;;;;;;;4.30;2.70;;;;;;;9.06;82.45;99203.77;84867;1325;22596;-72
2022/09/17 00:37:29;;;;;;;3.70;2.70;;;;;;;9.07;82.44;99202.71;84865;1322;22589;-72
2022/09/17 00:39:39;;;;;;;3.30;2.70;;;;;;;9.07;82.32;99203.03;84857;1323;23997;-73
2022/09/17 00:41:48;;;;;;;6.50;2.60;;;;;;;9.07;82.30;99207.73;84869;1325;22636;-70
2022/09/17 00:43:58;;;;;;;3.40;3.00;;;;;;;9.07;82.29;99208.24;84814;1325;22586;-69
2022/09/17 00:46:11;;;;;;;2.60;2.30;;;;;;;9.06;82.25;99207.08;84777;1324;22844;-71
2022/09/17 00:48:22;;;;;;;5.10;2.90;;;;;;;9.04;82.10;99206.50;84844;1319;22876;-71
2022/09/17 00:50:34;;;;;;;3.10;2.50;;;;;;;9.00;82.19;99210.66;84875;1327;23959;-69
2022/09/17 00:52:45;;;;;;;4.50;2.40;;;;;;;8.98;82.16;99212.17;84867;1327;22847;-69
2022/09/17 00:54:57;;;;;;;2.60;2.40;;;;;;;8.96;82.06;99214.21;84848;1325;22604;-71
2022/09/17 00:57:08;;;;;;;4.30;2.90;;;;;;;8.93;82.09;99219.38;84877;1324;22607;-72
2022/09/17 00:59:18;;;;;;;4.10;2.60;;;;;;;8.90;82.18;99219.19;84846;1325;22591;-72
2022/09/17 01:01:27;;;;;;;3.70;2.60;;;;;;;8.87;82.13;99220.57;84860;1322;22581;-73
2022/09/17 01:03:35;;;;;;;4.10;2.60;;;;;;;8.83;82.13;99217.09;84854;1323;22595;-71
2022/09/17 01:05:47;;;;;;;4.10;2.70;;;;;;;8.80;82.25;99215.84;84879;1325;22618;-73
2022/09/17 01:08:05;;;;;;;3.60;2.50;;;;;;;8.77;82.20;99215.29;84784;1327;24116;-72
2022/09/17 01:10:26;;;;;;;3.30;2.40;;;;;;;8.75;82.43;99214.36;84920;1325;22586;-72
2022/09/17 01:13:02;;;;;;;3.30;1.80;;;;;;;8.72;82.31;99217.83;84894;1325;22579;-72
2022/09/17 01:15:25;;;;;;;2.80;2.30;;;;;;;8.68;82.55;99219.90;84792;1328;25319;-72
2022/09/17 01:17:38;;;;;;;3.70;2.80;;;;;;;8.67;82.62;99215.28;84854;1323;22842;-71
2022/09/17 01:20:16;;;;;;;3.60;2.70;;;;;;;8.66;82.75;99218.60;84836;1326;25168;-72
2022/09/17 01:22:30;;;;;;;2.40;2.20;;;;;;;8.66;82.63;99218.59;84853;1324;26024;-72
2022/09/17 01:25:17;;;;;;;6.10;2.10;;;;;;;8.67;82.68;99217.54;84800;1327;23907;-71
2022/09/17 01:28:23;;;;;;;3.40;2.50;;;;;;;8.65;82.63;99217.77;84873;1324;22584;-72
2022/09/17 01:30:57;;;;;;;4.40;2.30;;;;;;;8.63;82.86;99215.84;84810;1329;22841;-72
2022/09/17 01:33:09;;;;;;;2.70;2.20;;;;;;;8.63;82.71;99213.94;84843;1322;24013;-72
2022/09/17 01:35:25;;;;;;;3.60;2.20;;;;;;;8.60;82.64;99209.52;84905;1323;22701;-72
2022/09/17 01:37:38;;;;;;;6.90;3.10;;;;;;;8.57;82.81;99213.17;84855;1323;23956;-73
2022/09/17 01:39:51;;;;;;;3.20;2.40;;;;;;;8.54;82.75;99215.05;84780;1326;25271;-70
2022/09/17 01:42:14;;;;;;;3.00;2.00;;;;;;;8.52;82.88;99216.89;84830;1327;22722;-72
2022/09/17 01:44:28;;;;;;;3.50;2.50;;;;;;;8.50;82.83;99217.30;84824;1329;25448;-73
2022/09/17 01:46:39;;;;;;;3.60;2.10;;;;;;;8.47;82.83;99220.95;84843;1326;22585;-72
2022/09/17 01:48:50;;;;;;;6.90;2.40;;;;;;;8.45;82.94;99221.73;84796;1329;22624;-71
2022/09/17 01:51:04;;;;;;;3.10;2.10;;;;;;;8.43;83.03;99219.19;84824;1323;23877;-71
2022/09/17 01:53:15;;;;;;;2.60;1.90;;;;;;;8.41;83.01;99219.30;84349;1327;665528;-71
2022/09/17 01:55:31;;;;;;;2.60;2.00;;;;;;;8.40;83.05;99219.20;84830;1327;22610;-72
2022/09/17 01:57:45;;;;;;;2.50;2.20;;;;;;;8.37;83.19;99218.81;84817;1327;22648;-72
2022/09/17 01:59:55;;;;;;;4.40;2.10;;;;;;;8.35;83.16;99217.14;84856;1323;22642;-72
2022/09/17 02:02:06;;;;;;;2.70;2.40;;;;;;;8.33;83.40;99216.88;84848;1325;23930;-72
2022/09/17 02:04:21;;;;;;;3.10;2.00;;;;;;;8.33;83.48;99217.57;84837;1325;22614;-73
2022/09/17 02:06:33;;;;;;;5.10;2.00;;;;;;;8.34;83.44;99215.45;84823;1325;24225;-68
2022/09/17 02:08:46;;;;;;;9.40;2.40;;;;;;;8.33;83.41;99213.57;84810;1322;22641;-71
2022/09/17 02:10:59;;;;;;;2.80;2.10;;;;;;;8.34;83.45;99213.38;84825;1325;22580;-73
2022/09/17 02:13:11;;;;;;;3.20;2.20;;;;;;;8.34;83.56;99213.00;84822;1327;22632;-72
2022/09/17 02:15:22;;;;;;;2.20;1.80;;;;;;;8.35;83.62;99211.93;84833;1325;22581;-72
2022/09/17 02:17:37;;;;;;;3.30;1.80;;;;;;;8.36;83.69;99211.71;84809;1328;25483;-70
2022/09/17 02:19:46;;;;;;;4.00;2.40;;;;;;;8.38;83.67;99207.83;84804;1328;23040;-68
2022/09/17 02:21:59;;;;;;;2.30;1.60;;;;;;;8.39;83.70;99208.27;84839;1325;22613;-70
2022/09/17 02:24:20;;;;;;;4.40;2.20;;;;;;;8.41;83.61;99211.12;84821;1327;25267;-70
2022/09/17 02:26:29;;;;;;;2.70;2.10;;;;;;;8.43;83.71;99215.41;84829;1325;22610;-70
2022/09/17 02:28:42;;;;;;;2.70;1.60;;;;;;;8.44;83.50;99212.72;84812;1326;22626;-70
2022/09/17 02:30:53;;;;;;;3.40;1.50;;;;;;;8.45;83.50;99208.34;84861;1327;22580;-72
2022/09/17 02:33:03;;;;;;;2.80;1.90;;;;;;;8.46;83.50;99203.77;84832;1328;22586;-71
2022/09/17 02:35:15;;;;;;;3.50;1.80;;;;;;;8.48;83.58;99208.56;84808;1321;22607;-72
2022/09/17 02:37:26;;;;;;;3.30;2.00;;;;;;;8.49;83.45;99207.60;84848;1325;25237;-71
2022/09/17 02:39:35;;;;;;;3.40;1.60;;;;;;;8.51;83.45;99205.06;84847;1327;26175;-72
2022/09/17 02:41:50;;;;;;;3.00;1.80;;;;;;;8.53;83.33;99206.23;84768;1327;22665;-72
2022/09/17 02:44:04;;;;;;;6.80;1.80;;;;;;;8.51;83.00;99205.62;84851;1323;22605;-73
2022/09/17 02:46:28;;;;;;;4.10;2.00;;;;;;;8.46;83.05;99202.02;84883;1324;23853;-69
2022/09/17 02:49:01;;;;;;;5.10;1.80;;;;;;;8.45;83.09;99203.13;84841;1323;22667;-71
2022/09/17 02:51:32;;;;;;;2.50;1.60;;;;;;;8.42;83.02;99203.12;84887;1324;22593;-72
2022/09/17 02:53:48;;;;;;;3.00;1.90;;;;;;;8.40;83.06;99197.96;84870;1324;24210;-72
2022/09/17 02:56:02;;;;;;;2.40;1.70;;;;;;;8.38;82.95;99193.73;84828;1327;25269;-71
2022/09/17 02:58:20;;;;;;;1.50;1.30;;;;;;;8.36;83.06;99196.58;84888;1319;22576;-69
2022/09/17 03:00:32;;;;;;;2.50;1.50;;;;;;;8.35;83.24;99202.36;84915;1320;22711;-71
2022/09/17 03:02:43;;;;;;;1.90;1.50;;;;;;;8.35;83.24;99203.05;84828;1324;23959;-70
2022/09/17 03:04:52;;;;;;;2.30;1.50;;;;;;;8.34;83.17;99203.97;84853;1328;22612;-72
2022/09/17 03:07:01;;;;;;;2.80;1.60;;;;;;;8.34;83.21;99205.91;84874;1324;22814;-71
2022/09/17 05:42:16;;;;;;;2.50;1.80;;;;;;;11.55;79.23;99206.02;84849;1312;22632;-72
2022/09/17 05:44:25;;;;;;;4.70;2.40;;;;;;;11.70;78.44;99203.52;84798;1327;22577;-72
2022/09/17 05:46:34;;;;;;;2.20;1.50;;;;;;;11.88;78.55;99199.81;84807;1326;22583;-71
2022/09/17 05:48:43;;;;;;;4.50;2.20;;;;;;;12.27;78.44;99202.44;84789;1326;24288;-71
2022/09/17 05:50:56;;;;;;;2.80;2.20;;;;;;;12.92;80.30;99196.98;84808;1326;25528;-71
2022/09/17 05:53:11;;;;;;;3.00;2.10;;;;;;;14.25;80.24;99195.00;84824;1323;22592;-71
2022/09/17 05:55:21;;;;;;;2.70;1.70;;;;;;;15.60;77.20;99189.48;84791;1326;22716;-71
2022/09/17 05:57:31;;;;;;;3.80;1.60;;;;;;;16.87;73.34;99187.40;84781;1326;24036;-71
2022/09/17 05:59:40;;;;;;;3.70;1.70;;;;;;;17.99;68.17;99183.23;84771;1324;22737;-71
2022/09/17 06:01:49;;;;;;;2.60;1.50;;;;;;;18.72;63.20;99180.99;84790;1326;24321;-71
2022/09/17 06:03:58;;;;;;;2.40;1.80;;;;;;;19.17;60.38;99180.17;84803;1326;26513;-69
2022/09/17 06:06:07;;;;;;;4.00;1.30;;;;;;;19.29;58.89;99177.27;84812;1321;23000;-70
2022/09/17 06:08:17;;;;;;;2.20;1.10;;;;;;;19.29;57.46;99175.02;84811;1327;23805;-70
2022/09/17 06:10:29;;;;;;;3.40;1.40;;;;;;;19.17;56.26;99169.77;84784;1325;22589;-70
2022/09/17 06:12:37;;;;;;;1.90;1.40;;;;;;;18.92;55.91;99164.29;84817;1326;23981;-71
2022/09/17 06:14:46;;;;;;;3.50;1.10;;;;;;;18.60;56.09;99165.05;84797;1326;24178;-72
2022/09/17 06:16:55;;;;;;;3.90;1.40;;;;;;;18.27;55.93;99162.52;84829;1325;24256;-72
2022/09/17 06:19:04;;;;;;;3.40;1.40;;;;;;;17.86;55.49;99164.27;84599;1329;23971;-72
2022/09/17 06:21:20;;;;;;;2.50;1.60;;;;;;;17.39;56.01;99166.48;84768;1327;24131;-73
2022/09/17 06:23:32;;;;;;;6.00;1.60;;;;;;;16.98;56.69;99166.98;84715;1329;22708;-72
2022/09/17 06:25:43;;;;;;;2.00;1.30;;;;;;;16.65;57.41;99161.59;84804;1328;22926;-72
2022/09/17 06:27:52;;;;;;;4.20;1.60;;;;;;;16.37;58.20;99164.60;84804;1327;22624;-71
2022/09/17 06:30:01;;;;;;;2.30;1.40;;;;;;;16.10;58.47;99160.80;84777;1323;22549;-72
2022/09/17 06:32:11;;;;;;;4.60;1.70;;;;;;;15.85;58.95;99167.02;84727;1329;22609;-72
2022/09/17 06:34:20;;;;;;;5.70;1.40;;;;;;;15.65;59.20;99162.77;84772;1326;25321;-71
2022/09/17 06:36:29;;;;;;;3.20;1.80;;;;;;;15.49;59.74;99167.19;84793;1326;24139;-72
2022/09/17 06:38:38;;;;;;;2.70;1.90;;;;;;;15.34;60.15;99159.73;84801;1326;22754;-70
2022/09/17 06:40:50;;;;;;;4.70;1.50;;;;;;;15.21;60.57;99159.48;84820;1326;22804;-72
2022/09/17 06:43:01;;;;;;;1.90;1.50;;;;;;;15.17;60.89;99156.60;84847;1326;22750;-72
2022/09/17 06:45:12;;;;;;;4.30;1.20;;;;;;;15.16;61.32;99154.89;84793;1326;25527;-72
2022/09/17 06:47:21;;;;;;;4.00;1.40;;;;;;;15.13;61.18;99152.02;84826;1326;23269;-72
2022/09/17 06:49:30;;;;;;;2.60;1.40;;;;;;;15.13;61.70;99153.60;84723;1328;22695;-72
2022/09/17 06:51:39;;;;;;;2.80;1.60;;;;;;;15.20;61.81;99153.90;84794;1329;22683;-72
2022/09/17 06:53:49;;;;;;;8.00;2.00;;;;;;;15.26;61.67;99157.17;84799;1322;22744;-72
2022/09/17 06:55:59;;;;;;;2.10;1.50;;;;;;;15.26;61.42;99155.25;84827;1326;22577;-73
2022/09/17 06:58:08;;;;;;;7.90;1.90;;;;;;;15.23;61.63;99158.59;84815;1327;22604;-71
2022/09/17 07:00:17;;;;;;;3.60;1.50;;;;;;;15.16;61.27;99160.35;84817;1326;25454;-68
2022/09/17 07:02:26;;;;;;;7.20;1.80;;;;;;;15.05;61.05;99164.55;84803;1327;22588;-70
2022/09/17 07:04:35;;;;;;;4.60;1.50;;;;;;;14.96;61.53;99163.64;84804;1327;22770;-71
2022/09/17 07:06:44;;;;;;;4.00;1.20;;;;;;;14.96;62.05;99166.08;84820;1327;22691;-71
2022/09/17 07:08:53;;;;;;;6.20;1.40;;;;;;;14.95;62.10;99167.77;84789;1326;22597;-70
2022/09/17 07:11:04;;;;;;;4.30;1.50;;;;;;;14.98;61.81;99173.02;84710;1330;25506;-71
2022/09/17 07:13:12;;;;;;;6.20;2.00;;;;;;;14.98;61.68;99176.16;84770;1323;26829;-71
2022/09/17 07:15:22;;;;;;;4.70;1.70;;;;;;;14.91;61.59;99174.35;84808;1327;22676;-71
2022/09/17 07:17:32;;;;;;;2.80;1.70;;;;;;;14.85;61.76;99181.13;84817;1328;22633;-71
2022/09/17 07:19:45;;;;;;;2.30;1.40;;;;;;;14.79;61.96;99183.70;84822;1326;25244;-71
2022/09/17 07:21:55;;;;;;;6.90;2.30;;;;;;;14.69;61.88;99184.66;84812;1329;22683;-72
2022/09/17 07:24:02;;;;;;;;;;;;;;;14.57;62.17;99187.27;84814;1327;23886;-72
2022/09/17 07:26:15;;;;;;;4.80;1.60;;;;;;;14.43;62.42;99188.06;84742;1328;25253;-70
2022/09/17 07:28:24;;;;;;;6.50;2.00;;;;;;;14.34;62.71;99189.77;84827;1327;23987;-71
2022/09/17 07:30:33;;;;;;;2.70;1.90;;;;;;;14.26;63.22;99193.90;84820;1326;22855;-71
2022/09/17 07:32:45;;;;;;;5.10;2.20;;;;;;;14.21;63.61;99196.69;84819;1326;23914;-71
2022/09/17 07:34:54;;;;;;;5.70;2.40;;;;;;;14.20;63.93;99197.27;84758;1330;22785;-72
2022/09/17 07:37:03;;;;;;;4.60;2.30;;;;;;;14.20;64.01;99201.84;84814;1326;22693;-72
2022/09/17 07:39:13;;;;;;;4.30;1.80;;;;;;;14.19;64.03;99197.16;84825;1327;22732;-71
2022/09/17 07:41:27;;;;;;;12.90;3.20;;;;;;;14.17;64.23;99199.27;84833;1329;24460;-72
2022/09/17 07:43:38;;;;;;;7.70;2.70;;;;;;;14.16;64.30;99197.96;84805;1327;23791;-72
2022/09/17 07:45:52;;;;;;;4.30;2.20;;;;;;;14.10;64.29;99201.69;84809;1326;22616;-72
2022/09/17 07:48:01;;;;;;;2.40;1.80;;;;;;;14.08;64.46;99205.72;84795;1318;22890;-72
2022/09/17 07:50:11;;;;;;;2.10;1.90;;;;;;;14.04;64.41;99209.30;84799;1329;22614;-72
2022/09/17 07:52:20;;;;;;;4.40;2.30;;;;;;;13.98;64.48;99215.58;84862;1327;26447;-72
2022/09/17 07:54:29;;;;;;;9.70;3.40;;;;;;;13.90;64.66;99218.16;84819;1325;22707;-72
2022/09/17 07:56:38;;;;;;;2.90;2.10;;;;;;;13.82;64.63;99214.05;84846;1327;22608;-71
2022/09/17 07:58:47;;;;;;;4.10;1.90;;;;;;;13.74;65.03;99213.34;84812;1329;25406;-71
2022/09/17 08:00:56;;;;;;;3.30;1.50;;;;;;;13.69;65.21;99216.17;84789;1327;23997;-72
2022/09/17 08:03:05;;;;;;;3.10;1.50;;;;;;;13.63;65.41;99215.02;84833;1327;22812;-72
2022/09/17 08:05:14;;;;;;;3.20;1.30;;;;;;;13.59;65.49;99216.69;84785;1327;24359;-72
2022/09/17 08:07:23;;;;;;;2.70;1.80;;;;;;;13.55;65.62;99218.19;84834;1327;22836;-72
2022/09/17 08:09:32;;;;;;;4.70;1.60;;;;;;;13.54;65.88;99219.63;84827;1327;22586;-72
2022/09/17 08:11:41;;;;;;;5.20;1.60;;;;;;;13.56;66.05;99223.38;84733;1332;22608;-71
2022/09/17 08:13:53;;;;;;;4.00;2.10;;;;;;;13.54;66.05;99225.77;84823;1325;23307;-70
2022/09/17 08:16:06;;;;;;;5.10;1.80;;;;;;;13.51;66.16;99219.88;84823;1326;25256;-71
2022/09/17 08:18:18;;;;;;;3.10;2.30;;;;;;;13.47;66.18;99220.68;84885;1327;22593;-71
2022/09/17 08:20:28;;;;;;;3.00;2.10;;;;;;;13.43;66.55;99224.23;84821;1327;22605;-72
2022/09/17 08:22:37;;;;;;;5.50;1.50;;;;;;;13.39;66.76;99221.14;84826;1327;22649;-70
2022/09/17 08:24:47;;;;;;;2.20;1.50;;;;;;;13.37;67.06;99220.73;84822;1327;22745;-71
2022/09/17 08:26:56;;;;;;;8.70;2.00;;;;;;;13.35;66.94;99225.27;84840;1325;22602;-71
2022/09/17 08:29:06;;;;;;;5.80;2.10;;;;;;;13.34;67.04;99224.35;84793;1328;23920;-71
2022/09/17 08:31:23;;;;;;;4.70;1.60;;;;;;;13.36;67.44;99225.79;84790;1326;25352;-71
2022/09/17 08:33:34;;;;;;;2.40;2.10;;;;;;;13.42;67.63;99237.10;84767;1326;24239;-71
2022/09/17 08:35:43;;;;;;;7.20;2.50;;;;;;;13.50;67.94;99238.45;84711;1328;23872;-71
2022/09/17 08:37:51;;;;;;;6.40;1.70;;;;;;;13.58;67.79;99237.06;84792;1330;23025;-71
2022/09/17 08:40:00;;;;;;;1.80;1.40;;;;;;;13.72;68.17;99242.60;84746;1327;22611;-71
2022/09/17 08:42:16;;;;;;;3.10;1.40;;;;;;;13.89;67.85;99240.34;84753;1330;22702;-72
2022/09/17 08:44:34;;;;;;;3.80;1.70;;;;;;;14.08;67.87;99245.52;84702;1331;22766;-72
2022/09/17 08:47:01;;;;;;;3.80;1.50;;;;;;;14.22;67.33;99249.95;84816;1325;22593;-71
2022/09/17 08:49:20;;;;;;;4.90;1.50;;;;;;;14.29;67.01;99250.67;84833;1328;22902;-71
2022/09/17 08:51:35;;;;;;;2.10;1.50;;;;;;;14.32;66.52;99251.48;84849;1328;22587;-71
2022/09/17 08:54:10;;;;;;;3.00;2.70;;;;;;;14.33;66.26;99250.06;84845;1326;22577;-70
2022/09/17 08:56:23;;;;;;;3.10;1.60;;;;;;;14.31;65.99;99245.28;84864;1327;24235;-71
2022/09/17 08:58:57;;;;;;;1.70;1.40;;;;;;;14.28;65.97;99247.09;84825;1328;22639;-71
2022/09/17 09:01:23;;;;;;;1.60;1.50;;;;;;;14.25;65.85;99243.77;84841;1329;23216;-70
2022/09/17 09:03:51;;;;;;;3.30;1.50;;;;;;;14.27;65.83;99238.92;84841;1329;24982;-70
2022/09/17 09:06:00;;;;;;;4.40;2.00;;;;;;;14.40;66.47;99234.78;84785;1328;24243;-70
2022/09/17 09:08:26;;;;;;;3.80;2.20;;;;;;;14.55;66.31;99236.57;84822;1326;25477;-70
2022/09/17 09:10:40;;;;;;;2.20;1.30;;;;;;;14.69;66.18;99236.27;84798;1327;22592;-69
2022/09/17 09:12:49;;;;;;;2.30;1.40;;;;;;;14.80;65.76;99236.67;84715;1325;22638;-72
2022/09/17 09:15:01;;;;;;;1.10;1.00;;;;;;;14.89;65.73;99237.01;84777;1327;22635;-72
2022/09/17 09:17:14;;;;;;;1.60;1.30;;;;;;;15.02;65.38;99239.64;84816;1328;22588;-73
2022/09/17 09:19:25;;;;;;;2.20;1.40;;;;;;;15.12;65.01;99236.77;84796;1327;25435;-72
2022/09/17 09:21:39;;;;;;;3.80;1.60;;;;;;;15.16;64.29;99244.66;84781;1329;25378;-71
2022/09/17 09:23:53;;;;;;;2.80;1.20;;;;;;;15.19;64.05;99243.27;84765;1327;22821;-73
2022/09/17 09:26:07;;;;;;;1.70;1.30;;;;;;;15.25;64.10;99245.44;84706;1327;22603;-72
2022/09/17 09:28:32;;;;;;;1.50;1.10;;;;;;;15.31;64.14;99246.75;84830;1326;22853;-74
2022/09/17 09:30:51;;;;;;;3.90;1.40;;;;;;;15.32;63.61;99251.02;84793;1328;22821;-72
2022/09/17 09:33:03;;;;;;;4.10;1.10;;;;;;;15.30;63.69;99247.48;84821;1329;22616;-72
2022/09/17 09:35:21;;;;;;;2.30;1.00;;;;;;;15.28;63.64;99251.41;84825;1329;22581;-72
2022/09/17 09:37:32;;;;;;;2.10;0.90;;;;;;;15.27;63.31;99248.66;84821;1327;22840;-69
2022/09/17 09:39:41;;;;;;;1.30;0.80;;;;;;;15.23;63.56;99247.20;84812;1329;22671;-70
2022/09/17 09:42:19;;;;;;;0.80;0.60;;;;;;;15.17;63.83;99249.05;84861;1327;24411;-70
2022/09/17 09:44:29;;;;;;;1.10;0.80;;;;;;;15.03;63.96;99242.67;84706;1331;22687;-72
2022/09/17 09:47:01;;;;;;;1.00;0.70;;;;;;;14.90;64.21;99245.08;84813;1327;22599;-70
2022/09/17 09:49:18;;;;;;;1.00;0.90;;;;;;;14.71;64.57;99246.80;84805;1327;24259;-70
2022/09/17 09:51:37;;;;;;;3.40;1.00;;;;;;;14.46;65.16;99255.12;84829;1329;25440;-70
2022/09/17 09:53:56;;;;;;;1.70;1.30;;;;;;;14.24;65.92;99259.95;84433;1326;22703;-72
2022/09/17 09:56:16;;;;;;;2.80;1.00;;;;;;;14.09;66.89;99265.05;84787;1326;22582;-72
2022/09/17 09:58:31;;;;;;;3.80;1.30;;;;;;;14.06;67.90;99261.79;84787;1329;22744;-73
2022/09/17 10:00:43;;;;;;;2.30;1.00;;;;;;;14.10;68.59;99256.07;84816;1329;25397;-73
2022/09/17 10:02:52;;;;;;;2.10;1.20;;;;;;;14.18;69.28;99249.70;84712;1332;22648;-69
2022/09/17 10:05:10;;;;;;;2.00;1.20;;;;;;;14.27;69.51;99248.02;84771;1322;22746;-71
2022/09/17 10:07:19;;;;;;;2.60;1.80;;;;;;;14.40;69.90;99245.16;84832;1326;22977;-71
2022/09/17 10:09:29;;;;;;;1.30;1.20;;;;;;;14.51;69.55;99247.23;84793;1326;23943;-71
2022/09/17 10:11:39;;;;;;;2.40;1.60;;;;;;;14.58;69.52;99245.26;84835;1328;22584;-70
2022/09/17 10:13:48;;;;;;;2.80;1.60;;;;;;;14.67;69.43;99246.42;84814;1329;22722;-72
2022/09/17 10:15:57;;;;;;;1.70;1.30;;;;;;;14.77;69.56;99245.33;84825;1329;23958;-71
2022/09/17 10:18:23;;;;;;;2.50;1.90;;;;;;;14.88;69.86;99246.25;84852;1326;22876;-71
2022/09/17 10:20:32;;;;;;;3.40;1.90;;;;;;;15.07;69.75;99251.40;84814;1329;23978;-71
2022/09/17 10:22:43;;;;;;;1.30;1.10;;;;;;;15.23;69.51;99250.35;84822;1329;22604;-71
2022/09/17 10:28:23;;;;;;;2.00;1.70;;;;;;;15.52;68.15;99251.84;84777;1327;22583;-71
2022/09/17 10:31:09;;;;;;;3.30;1.00;;;;;;;15.78;68.42;99255.35;84839;1326;22594;-71
2022/09/17 10:33:53;;;;;;;3.90;1.10;;;;;;;16.12;67.50;99255.83;84779;1327;22704;-72
2022/09/17 10:36:05;;;;;;;1.30;1.20;;;;;;;16.43;66.35;99255.77;84833;1327;22596;-74
2022/09/17 10:38:35;;;;;;;0.80;0.70;;;;;;;16.66;66.37;99257.64;84768;1328;22667;-71
2022/09/17 10:40:50;;;;;;;1.90;1.10;;;;;;;16.79;64.87;99261.60;84748;1327;22818;-71
2022/09/17 10:43:24;;;;;;;2.40;0.90;;;;;;;16.76;64.29;99261.59;84785;1326;23965;-73
2022/09/17 10:45:34;;;;;;;3.30;1.60;;;;;;;16.75;63.07;99263.48;84808;1328;22590;-73
2022/09/17 10:47:50;;;;;;;1.60;1.20;;;;;;;16.68;62.63;99261.23;84846;1327;23975;-72
2022/09/17 10:50:01;;;;;;;1.00;0.90;;;;;;;16.62;62.55;99261.88;84775;1329;24345;-72
2022/09/17 10:52:23;;;;;;;1.00;0.80;;;;;;;16.57;62.04;99261.24;84820;1322;24262;-72
2022/09/17 10:54:48;;;;;;;0.70;0.60;;;;;;;16.50;62.50;99266.55;84802;1326;25276;-72
2022/09/17 10:56:59;;;;;;;0.60;0.50;;;;;;;16.44;61.90;99269.85;84814;1323;22705;-71
2022/09/17 10:59:43;;;;;;;0.60;0.60;;;;;;;16.35;61.62;99276.14;84809;1326;24304;-72
2022/09/17 11:02:00;;;;;;;2.10;0.40;;;;;;;16.26;61.64;99275.79;84823;1326;24448;-72
2022/09/17 11:04:24;;;;;;;0.80;0.50;;;;;;;16.18;61.46;99285.58;84829;1327;23969;-72
2022/09/17 11:06:51;;;;;;;2.50;0.70;;;;;;;16.12;61.54;99292.59;84849;1326;22865;-74
2022/09/17 11:09:08;;;;;;;0.40;0.40;;;;;;;16.08;61.64;99296.42;84801;1326;23886;-72
2022/09/17 11:11:24;;;;;;;0.40;0.40;;;;;;;16.07;61.79;99292.09;84821;1325;22597;-72
2022/09/17 11:13:37;;;;;;;0.40;0.40;;;;;;;16.11;62.20;99293.61;84812;1327;24103;-72
2022/09/17 11:16:01;;;;;;;0.50;0.40;;;;;;;16.20;62.47;99287.38;84816;1326;22877;-69
2022/09/17 11:18:28;;;;;;;0.80;0.50;;;;;;;16.45;62.36;99278.89;84825;1327;23938;-68
2022/09/17 11:21:07;;;;;;;4.40;1.80;;;;;;;16.61;61.94;99268.84;84791;1329;24191;-70
2022/09/17 11:23:31;;;;;;;1.30;0.80;;;;;;;16.64;61.53;99264.01;84820;1327;24209;-70
2022/09/17 11:25:51;;;;;;;1.70;0.90;;;;;;;16.67;61.87;99263.01;84802;1327;24308;-70
2022/09/17 11:28:08;;;;;;;0.90;0.90;;;;;;;16.77;61.59;99261.76;84701;1326;23812;-71
2022/09/17 11:30:20;;;;;;;3.30;1.20;;;;;;;16.90;61.74;99258.38;84833;1328;25534;-72
2022/09/17 11:32:51;;;;;;;2.60;1.60;;;;;;;17.03;61.62;99252.02;84859;1327;25455;-73
2022/09/17 11:35:02;;;;;;;2.80;1.30;;;;;;;17.22;61.79;99254.11;84813;1328;24169;-73
2022/09/17 11:37:15;;;;;;;7.60;1.80;;;;;;;17.42;61.61;99249.83;84825;1329;22592;-73
2022/09/17 11:39:25;;;;;;;6.00;1.50;;;;;;;17.59;60.87;99245.03;84837;1328;23937;-73
2022/09/17 11:41:36;;;;;;;2.00;0.80;;;;;;;17.69;60.60;99247.85;84852;1322;22613;-72
2022/09/17 11:43:49;;;;;;;3.10;1.70;;;;;;;17.75;60.27;99242.61;84880;1328;23215;-71
2022/09/17 11:46:05;;;;;;;6.30;3.60;;;;;;;17.75;59.31;99245.84;84825;1328;22940;-71
2022/09/17 11:48:17;;;;;;;6.20;3.00;;;;;;;17.63;58.58;99248.39;84874;1327;22930;-71
2022/09/17 11:50:28;;;;;;;5.80;2.10;;;;;;;17.46;57.86;99247.16;84822;1327;22620;-70
2022/09/17 11:52:46;;;;;;;6.00;1.40;;;;;;;17.29;57.91;99250.38;84824;1328;22941;-71
2022/09/17 11:54:58;;;;;;;2.00;1.80;;;;;;;17.17;58.22;99253.52;84690;1325;22581;-71
2022/09/17 11:57:18;;;;;;;3.40;2.40;;;;;;;17.07;58.43;99253.99;84840;1327;25438;-72
2022/09/17 11:59:34;;;;;;;4.60;3.10;;;;;;;16.95;58.62;99256.23;84827;1327;23905;-71
2022/09/17 12:01:46;;;;;;;2.20;1.50;;;;;;;16.79;58.70;99261.56;84731;1330;22625;-70
2022/09/17 12:03:58;;;;;;;1.70;1.00;;;;;;;16.65;59.12;99261.23;84796;1327;22610;-71
2022/09/17 12:06:12;;;;;;;1.30;0.90;;;;;;;16.56;59.48;99252.46;84847;1322;25610;-71
2022/09/17 12:08:25;;;;;;;3.00;2.10;;;;;;;16.49;59.88;99250.02;84827;1322;24019;-70
2022/09/17 12:10:48;;;;;;;3.30;2.70;;;;;;;16.42;59.50;99249.90;84793;1327;22617;-72
2022/09/17 12:13:00;;;;;;;2.40;1.80;;;;;;;16.35;59.65;99250.96;84838;1327;22597;-72
2022/09/17 12:15:20;;;;;;;1.60;1.20;;;;;;;16.33;59.40;99251.88;84734;1324;22629;-73
2022/09/17 12:17:33;;;;;;;0.80;0.80;;;;;;;16.29;59.76;99257.33;84798;1327;22731;-71
2022/09/17 12:19:45;;;;;;;1.30;1.00;;;;;;;16.27;59.92;99256.76;84761;1330;22588;-72
2022/09/17 12:21:56;;;;;;;1.30;1.00;;;;;;;16.27;60.14;99252.01;84808;1326;22671;-71
2022/09/17 12:24:12;;;;;;;2.10;0.80;;;;;;;16.28;60.23;99248.21;84787;1326;24233;-70
2022/09/17 12:26:33;;;;;;;0.90;0.80;;;;;;;16.30;60.04;99249.27;84806;1326;24304;-69
2022/09/17 12:28:46;;;;;;;1.20;1.10;;;;;;;16.30;60.03;99242.57;84805;1327;22676;-70
2022/09/17 12:30:59;;;;;;;1.80;0.90;;;;;;;16.30;60.02;99246.65;84811;1327;22680;-70
2022/09/17 12:33:27;;;;;;;2.20;1.40;;;;;;;16.29;60.19;99251.08;84820;1322;22685;-71
2022/09/17 12:36:03;;;;;;;1.30;1.00;;;;;;;16.25;60.22;99261.80;84788;1329;24114;-72
2022/09/17 12:38:24;;;;;;;1.60;1.10;;;;;;;16.19;59.91;99268.13;84829;1319;22602;-70
2022/09/17 12:40:34;;;;;;;2.20;1.00;;;;;;;16.06;60.21;99267.54;84762;1326;24116;-71
2022/09/17 12:43:01;;;;;;;2.40;1.40;;;;;;;16.00;60.66;99265.21;84822;1326;26674;-72
2022/09/17 12:45:23;;;;;;;1.30;1.20;;;;;;;15.96;61.15;99271.36;84786;1327;23040;-70
2022/09/17 12:48:06;;;;;;;2.30;1.50;;;;;;;15.90;61.31;99270.36;84771;1327;22745;-71
2022/09/17 12:50:26;;;;;;;3.40;1.40;;;;;;;15.81;61.63;99264.21;84642;1327;23901;-72
2022/09/17 12:52:44;;;;;;;2.30;1.40;;;;;;;15.73;61.62;99258.00;84806;1327;22619;-73
2022/09/17 12:55:27;;;;;;;3.00;1.40;;;;;;;15.67;62.07;99250.86;84741;1328;22851;-73
2022/09/17 12:57:41;;;;;;;1.90;1.30;;;;;;;15.67;62.36;99247.16;84764;1327;22580;-71
2022/09/17 12:59:57;;;;;;;2.20;1.30;;;;;;;15.69;62.58;99247.17;84799;1327;22586;-71
2022/09/17 13:02:12;;;;;;;2.90;1.60;;;;;;;15.70;62.33;99246.09;84778;1328;22636;-72
2022/09/17 13:04:44;;;;;;;3.00;2.10;;;;;;;15.66;62.18;99245.98;84774;1330;25265;-72
2022/09/17 13:07:37;;;;;;;9.80;3.40;;;;;;;15.59;62.40;99243.58;84767;1326;24232;-71
2022/09/17 13:10:17;;;;;;;4.10;2.40;;;;;;;15.51;62.50;99240.27;84761;1326;22815;-71
2022/09/17 13:12:33;;;;;;;5.60;3.90;;;;;;;15.45;62.70;99244.73;84654;1327;24167;-72
2022/09/17 13:15:11;;;;;;;2.80;2.20;;;;;;;15.41;62.85;99240.52;84697;1326;22826;-71